sensor_id;sensor_type;location;lat;lon;timestamp;temperature;humidity
21473;DHT22;10898;48.072;11.682;2022-08-19T00:01:24;19.90;99.90
21473;DHT22;10898;48.072;11.682;2022-08-19T00:03:31;19.90;99.90
21473;DHT22;10898;48.072;11.682;2022-08-19T00:05:33;19.90;99.90
21473;DHT22;10898;48.072;11.682;2022-08-19T00:07:35;19.80;99.90
21473;DHT22;10898;48.072;11.682;2022-08-19T00:09:37;19.80;99.90
21473;DHT22;10898;48.072;11.682;2022-08-19T00:11:39;19.80;99.90
21473;DHT22;10898;48.072;11.682;2022-08-19T00:13:41;19.80;99.90
21473;DHT22;10898;48.072;11.682;2022-08-19T00:15:42;19.70;99.90
21473;DHT22;10898;48.072;11.682;2022-08-19T00:17:46;19.70;99.90
21473;DHT22;10898;48.072;11.682;2022-08-19T00:19:48;19.70;99.90
21473;DHT22;10898;48.072;11.682;2022-08-19T00:21:51;19.70;99.90
21473;DHT22;10898;48.072;11.682;2022-08-19T00:23:54;19.70;99.90
21473;DHT22;10898;48.072;11.682;2022-08-19T00:25:56;19.70;99.90
21473;DHT22;10898;48.072;11.682;2022-08-19T00:27:58;19.70;99.90
21473;DHT22;10898;48.072;11.682;2022-08-19T00:30:02;19.70;99.90
21473;DHT22;10898;48.072;11.682;2022-08-19T00:32:05;19.70;99.90
21473;DHT22;10898;48.072;11.682;2022-08-19T00:34:13;19.70;99.90
21473;DHT22;10898;48.072;11.682;2022-08-19T00:36:15;19.70;99.90
21473;DHT22;10898;48.072;11.682;2022-08-19T00:38:17;19.70;99.90
21473;DHT22;10898;48.072;11.682;2022-08-19T00:40:38;19.60;99.90
21473;DHT22;10898;48.072;11.682;2022-08-19T00:42:40;19.60;99.90
21473;DHT22;10898;48.072;11.682;2022-08-19T00:44:41;19.60;99.90
21473;DHT22;10898;48.072;11.682;2022-08-19T00:46:45;19.50;99.90
21473;DHT22;10898;48.072;11.682;2022-08-19T00:49:00;19.50;99.90
21473;DHT22;10898;48.072;11.682;2022-08-19T00:51:04;19.40;99.90
21473;DHT22;10898;48.072;11.682;2022-08-19T00:53:07;19.40;99.90
21473;DHT22;10898;48.072;11.682;2022-08-19T00:55:09;19.50;99.90
21473;DHT22;10898;48.072;11.682;2022-08-19T00:57:16;19.50;99.90
21473;DHT22;10898;48.072;11.682;2022-08-19T00:59:20;19.50;99.90
21473;DHT22;10898;48.072;11.682;2022-08-19T01:01:43;19.40;99.90
21473;DHT22;10898;48.072;11.682;2022-08-19T01:03:45;19.50;99.90
21473;DHT22;10898;48.072;11.682;2022-08-19T01:05:59;19.50;99.90
21473;DHT22;10898;48.072;11.682;2022-08-19T01:08:03;19.50;99.90
21473;DHT22;10898;48.072;11.682;2022-08-19T01:10:09;19.50;99.90
21473;DHT22;10898;48.072;11.682;2022-08-19T01:12:12;19.50;99.90
21473;DHT22;10898;48.072;11.682;2022-08-19T01:14:15;19.50;99.90
21473;DHT22;10898;48.072;11.682;2022-08-19T01:16:20;19.50;99.90
21473;DHT22;10898;48.072;11.682;2022-08-19T01:18:23;19.40;99.90
21473;DHT22;10898;48.072;11.682;2022-08-19T01:20:26;19.40;99.90
21473;DHT22;10898;48.072;11.682;2022-08-19T01:24:34;19.50;99.90
21473;DHT22;10898;48.072;11.682;2022-08-19T01:26:47;19.40;99.90
21473;DHT22;10898;48.072;11.682;2022-08-19T01:28:54;19.40;99.90
21473;DHT22;10898;48.072;11.682;2022-08-19T01:31:01;19.40;99.90
21473;DHT22;10898;48.072;11.682;2022-08-19T01:33:08;19.50;99.90
21473;DHT22;10898;48.072;11.682;2022-08-19T01:35:12;19.50;99.90
21473;DHT22;10898;48.072;11.682;2022-08-19T01:37:14;19.50;99.90
21473;DHT22;10898;48.072;11.682;2022-08-19T01:39:27;19.60;99.90
21473;DHT22;10898;48.072;11.682;2022-08-19T01:41:30;19.60;99.90
21473;DHT22;10898;48.072;11.682;2022-08-19T01:43:32;19.60;99.90
21473;DHT22;10898;48.072;11.682;2022-08-19T01:45:34;19.60;99.90
21473;DHT22;10898;48.072;11.682;2022-08-19T01:47:37;19.70;99.90
21473;DHT22;10898;48.072;11.682;2022-08-19T01:49:39;19.70;99.90
21473;DHT22;10898;48.072;11.682;2022-08-19T01:51:41;19.70;99.90
21473;DHT22;10898;48.072;11.682;2022-08-19T01:53:47;19.70;99.90
21473;DHT22;10898;48.072;11.682;2022-08-19T01:55:49;19.70;99.90
21473;DHT22;10898;48.072;11.682;2022-08-19T01:57:55;19.70;99.90
21473;DHT22;10898;48.072;11.682;2022-08-19T01:59:59;19.70;99.90
21473;DHT22;10898;48.072;11.682;2022-08-19T02:02:04;19.70;99.90
21473;DHT22;10898;48.072;11.682;2022-08-19T02:04:08;19.70;99.90
21473;DHT22;10898;48.072;11.682;2022-08-19T02:06:10;19.70;99.90
21473;DHT22;10898;48.072;11.682;2022-08-19T02:08:12;19.70;99.90
21473;DHT22;10898;48.072;11.682;2022-08-19T02:10:19;19.60;99.90
21473;DHT22;10898;48.072;11.682;2022-08-19T02:12:21;19.60;99.90
21473;DHT22;10898;48.072;11.682;2022-08-19T02:14:23;19.60;99.90
21473;DHT22;10898;48.072;11.682;2022-08-19T02:16:26;19.70;99.90
21473;DHT22;10898;48.072;11.682;2022-08-19T02:18:27;19.70;99.90
21473;DHT22;10898;48.072;11.682;2022-08-19T02:20:29;19.70;99.90
21473;DHT22;10898;48.072;11.682;2022-08-19T02:22:31;19.70;99.90
21473;DHT22;10898;48.072;11.682;2022-08-19T02:24:33;19.70;99.90
21473;DHT22;10898;48.072;11.682;2022-08-19T02:26:35;19.70;99.90
21473;DHT22;10898;48.072;11.682;2022-08-19T02:28:37;19.70;99.90
21473;DHT22;10898;48.072;11.682;2022-08-19T02:30:41;19.70;99.90
21473;DHT22;10898;48.072;11.682;2022-08-19T02:32:43;19.70;99.90
21473;DHT22;10898;48.072;11.682;2022-08-19T02:34:47;19.70;99.90
21473;DHT22;10898;48.072;11.682;2022-08-19T02:36:48;19.70;99.90
21473;DHT22;10898;48.072;11.682;2022-08-19T02:38:53;19.70;99.90
21473;DHT22;10898;48.072;11.682;2022-08-19T02:41:03;19.70;99.90
21473;DHT22;10898;48.072;11.682;2022-08-19T02:43:07;19.60;99.90
21473;DHT22;10898;48.072;11.682;2022-08-19T02:45:10;19.60;99.90
21473;DHT22;10898;48.072;11.682;2022-08-19T02:47:12;19.60;99.90
21473;DHT22;10898;48.072;11.682;2022-08-19T02:49:15;19.60;99.90
21473;DHT22;10898;48.072;11.682;2022-08-19T02:51:22;19.50;99.90
21473;DHT22;10898;48.072;11.682;2022-08-19T02:53:27;19.50;99.90
21473;DHT22;10898;48.072;11.682;2022-08-19T02:55:29;19.50;99.90
21473;DHT22;10898;48.072;11.682;2022-08-19T02:57:46;19.50;99.90
21473;DHT22;10898;48.072;11.682;2022-08-19T02:59:48;19.50;99.90
21473;DHT22;10898;48.072;11.682;2022-08-19T03:01:51;19.40;99.90
21473;DHT22;10898;48.072;11.682;2022-08-19T03:03:55;19.40;99.90
21473;DHT22;10898;48.072;11.682;2022-08-19T03:06:13;19.40;99.90
21473;DHT22;10898;48.072;11.682;2022-08-19T03:08:15;19.40;99.90
21473;DHT22;10898;48.072;11.682;2022-08-19T03:10:17;19.40;99.90
21473;DHT22;10898;48.072;11.682;2022-08-19T03:12:19;19.30;99.90
21473;DHT22;10898;48.072;11.682;2022-08-19T03:14:21;19.30;99.90
21473;DHT22;10898;48.072;11.682;2022-08-19T03:16:25;19.40;99.90
21473;DHT22;10898;48.072;11.682;2022-08-19T03:18:27;19.30;99.90
21473;DHT22;10898;48.072;11.682;2022-08-19T03:20:29;19.30;99.90
21473;DHT22;10898;48.072;11.682;2022-08-19T03:22:31;19.30;99.90
21473;DHT22;10898;48.072;11.682;2022-08-19T03:24:33;19.30;99.90
21473;DHT22;10898;48.072;11.682;2022-08-19T03:26:39;19.30;99.90
21473;DHT22;10898;48.072;11.682;2022-08-19T03:28:42;19.30;99.90
21473;DHT22;10898;48.072;11.682;2022-08-19T03:30:57;19.30;99.90
21473;DHT22;10898;48.072;11.682;2022-08-19T03:33:02;19.30;99.90
21473;DHT22;10898;48.072;11.682;2022-08-19T03:35:06;19.30;99.90
21473;DHT22;10898;48.072;11.682;2022-08-19T03:37:11;19.30;99.90
21473;DHT22;10898;48.072;11.682;2022-08-19T03:39:16;19.30;99.90
21473;DHT22;10898;48.072;11.682;2022-08-19T03:41:21;19.30;99.90
21473;DHT22;10898;48.072;11.682;2022-08-19T03:43:36;19.30;99.90
21473;DHT22;10898;48.072;11.682;2022-08-19T03:45:38;19.30;99.90
21473;DHT22;10898;48.072;11.682;2022-08-19T03:47:40;19.30;99.90
21473;DHT22;10898;48.072;11.682;2022-08-19T03:49:42;19.30;99.90
21473;DHT22;10898;48.072;11.682;2022-08-19T03:51:44;19.30;99.90
21473;DHT22;10898;48.072;11.682;2022-08-19T03:53:47;19.30;99.90
21473;DHT22;10898;48.072;11.682;2022-08-19T03:55:49;19.30;99.90
21473;DHT22;10898;48.072;11.682;2022-08-19T03:57:51;19.30;99.90
21473;DHT22;10898;48.072;11.682;2022-08-19T03:59:59;19.30;99.90
21473;DHT22;10898;48.072;11.682;2022-08-19T04:02:14;19.30;99.90
21473;DHT22;10898;48.072;11.682;2022-08-19T04:04:16;19.30;99.90
21473;DHT22;10898;48.072;11.682;2022-08-19T04:06:23;19.40;99.90
21473;DHT22;10898;48.072;11.682;2022-08-19T04:08:25;19.40;99.90
21473;DHT22;10898;48.072;11.682;2022-08-19T04:10:27;19.40;99.90
21473;DHT22;10898;48.072;11.682;2022-08-19T04:12:29;19.40;99.90
21473;DHT22;10898;48.072;11.682;2022-08-19T04:14:32;19.40;99.90
21473;DHT22;10898;48.072;11.682;2022-08-19T04:16:35;19.30;99.90
21473;DHT22;10898;48.072;11.682;2022-08-19T04:18:38;19.40;99.90
21473;DHT22;10898;48.072;11.682;2022-08-19T04:20:45;19.40;99.90
21473;DHT22;10898;48.072;11.682;2022-08-19T04:22:48;19.40;99.90
21473;DHT22;10898;48.072;11.682;2022-08-19T04:24:49;19.30;99.90
21473;DHT22;10898;48.072;11.682;2022-08-19T04:26:52;19.40;99.90
21473;DHT22;10898;48.072;11.682;2022-08-19T04:28:54;19.40;99.90
21473;DHT22;10898;48.072;11.682;2022-08-19T04:30:56;19.40;99.90
21473;DHT22;10898;48.072;11.682;2022-08-19T04:32:59;19.40;99.90
21473;DHT22;10898;48.072;11.682;2022-08-19T04:35:01;19.40;99.90
21473;DHT22;10898;48.072;11.682;2022-08-19T04:37:19;19.50;99.90
21473;DHT22;10898;48.072;11.682;2022-08-19T04:39:28;19.50;99.90
21473;DHT22;10898;48.072;11.682;2022-08-19T04:41:50;19.50;99.90
21473;DHT22;10898;48.072;11.682;2022-08-19T04:44:11;19.50;99.90
21473;DHT22;10898;48.072;11.682;2022-08-19T04:46:13;19.50;99.90
21473;DHT22;10898;48.072;11.682;2022-08-19T04:48:35;19.50;99.90
21473;DHT22;10898;48.072;11.682;2022-08-19T04:50:44;19.50;99.90
21473;DHT22;10898;48.072;11.682;2022-08-19T04:52:46;19.50;99.90
21473;DHT22;10898;48.072;11.682;2022-08-19T04:54:48;19.60;99.90
21473;DHT22;10898;48.072;11.682;2022-08-19T04:56:50;19.60;99.90
21473;DHT22;10898;48.072;11.682;2022-08-19T04:58:55;19.70;99.90
21473;DHT22;10898;48.072;11.682;2022-08-19T05:00:56;19.70;99.90
21473;DHT22;10898;48.072;11.682;2022-08-19T05:03:01;19.60;99.90
21473;DHT22;10898;48.072;11.682;2022-08-19T05:05:08;19.70;99.90
21473;DHT22;10898;48.072;11.682;2022-08-19T05:07:10;19.70;99.90
21473;DHT22;10898;48.072;11.682;2022-08-19T05:09:13;19.70;99.90
21473;DHT22;10898;48.072;11.682;2022-08-19T05:11:20;19.70;99.90
21473;DHT22;10898;48.072;11.682;2022-08-19T05:13:27;19.70;99.90
21473;DHT22;10898;48.072;11.682;2022-08-19T05:15:29;19.70;99.90
21473;DHT22;10898;48.072;11.682;2022-08-19T05:17:30;19.60;99.90
21473;DHT22;10898;48.072;11.682;2022-08-19T05:19:38;19.60;99.90
21473;DHT22;10898;48.072;11.682;2022-08-19T05:22:00;19.60;99.90
21473;DHT22;10898;48.072;11.682;2022-08-19T05:24:22;19.60;99.90
21473;DHT22;10898;48.072;11.682;2022-08-19T05:26:25;19.60;99.90
21473;DHT22;10898;48.072;11.682;2022-08-19T05:28:27;19.70;99.90
21473;DHT22;10898;48.072;11.682;2022-08-19T05:30:31;19.70;99.90
21473;DHT22;10898;48.072;11.682;2022-08-19T05:32:48;19.60;99.90
21473;DHT22;10898;48.072;11.682;2022-08-19T05:34:50;19.60;99.90
21473;DHT22;10898;48.072;11.682;2022-08-19T05:36:56;19.60;99.90
21473;DHT22;10898;48.072;11.682;2022-08-19T05:38:59;19.60;99.90
21473;DHT22;10898;48.072;11.682;2022-08-19T05:41:08;19.60;99.90
21473;DHT22;10898;48.072;11.682;2022-08-19T05:43:10;19.70;99.90
21473;DHT22;10898;48.072;11.682;2022-08-19T05:45:11;19.60;99.90
21473;DHT22;10898;48.072;11.682;2022-08-19T05:47:14;19.60;99.90
21473;DHT22;10898;48.072;11.682;2022-08-19T05:49:17;19.60;99.90
21473;DHT22;10898;48.072;11.682;2022-08-19T05:51:19;19.60;99.90
21473;DHT22;10898;48.072;11.682;2022-08-19T05:53:21;19.60;99.90
21473;DHT22;10898;48.072;11.682;2022-08-19T05:55:23;19.70;99.90
21473;DHT22;10898;48.072;11.682;2022-08-19T05:57:25;19.70;99.90
21473;DHT22;10898;48.072;11.682;2022-08-19T05:59:26;19.70;99.90
21473;DHT22;10898;48.072;11.682;2022-08-19T06:01:32;19.70;99.90
21473;DHT22;10898;48.072;11.682;2022-08-19T06:03:34;19.60;99.90
21473;DHT22;10898;48.072;11.682;2022-08-19T06:05:36;19.60;99.90
21473;DHT22;10898;48.072;11.682;2022-08-19T06:07:50;19.60;99.90
21473;DHT22;10898;48.072;11.682;2022-08-19T06:09:52;19.50;99.90
21473;DHT22;10898;48.072;11.682;2022-08-19T06:12:01;19.50;99.90
21473;DHT22;10898;48.072;11.682;2022-08-19T06:14:10;19.50;99.90
21473;DHT22;10898;48.072;11.682;2022-08-19T06:16:18;19.50;99.90
21473;DHT22;10898;48.072;11.682;2022-08-19T06:18:23;19.50;99.90
21473;DHT22;10898;48.072;11.682;2022-08-19T06:20:25;19.50;99.90
21473;DHT22;10898;48.072;11.682;2022-08-19T06:22:48;19.50;99.90
21473;DHT22;10898;48.072;11.682;2022-08-19T06:24:53;19.40;99.90
21473;DHT22;10898;48.072;11.682;2022-08-19T06:26:57;19.40;99.90
21473;DHT22;10898;48.072;11.682;2022-08-19T06:29:03;19.40;99.90
21473;DHT22;10898;48.072;11.682;2022-08-19T06:31:07;19.50;99.90
21473;DHT22;10898;48.072;11.682;2022-08-19T06:33:09;19.50;99.90
21473;DHT22;10898;48.072;11.682;2022-08-19T06:35:11;19.50;99.90
21473;DHT22;10898;48.072;11.682;2022-08-19T06:37:16;19.50;99.90
21473;DHT22;10898;48.072;11.682;2022-08-19T06:39:21;19.50;99.90
21473;DHT22;10898;48.072;11.682;2022-08-19T06:41:24;19.50;99.90
21473;DHT22;10898;48.072;11.682;2022-08-19T06:43:27;19.50;99.90
21473;DHT22;10898;48.072;11.682;2022-08-19T06:45:29;19.40;99.90
21473;DHT22;10898;48.072;11.682;2022-08-19T06:47:36;19.50;99.90
21473;DHT22;10898;48.072;11.682;2022-08-19T06:49:38;19.40;99.90
21473;DHT22;10898;48.072;11.682;2022-08-19T06:51:44;19.40;99.90
21473;DHT22;10898;48.072;11.682;2022-08-19T06:53:51;19.50;99.90
21473;DHT22;10898;48.072;11.682;2022-08-19T06:55:53;19.40;99.90
21473;DHT22;10898;48.072;11.682;2022-08-19T06:58:02;19.40;99.90
21473;DHT22;10898;48.072;11.682;2022-08-19T07:00:06;19.40;99.90
21473;DHT22;10898;48.072;11.682;2022-08-19T07:02:13;19.50;99.90
21473;DHT22;10898;48.072;11.682;2022-08-19T07:04:18;19.50;99.90
21473;DHT22;10898;48.072;11.682;2022-08-19T07:06:21;19.50;99.90
21473;DHT22;10898;48.072;11.682;2022-08-19T07:08:44;19.50;99.90
21473;DHT22;10898;48.072;11.682;2022-08-19T07:10:47;19.60;99.90
21473;DHT22;10898;48.072;11.682;2022-08-19T07:12:50;19.60;99.90
21473;DHT22;10898;48.072;11.682;2022-08-19T07:14:53;19.60;99.90
21473;DHT22;10898;48.072;11.682;2022-08-19T07:16:56;19.60;99.90
21473;DHT22;10898;48.072;11.682;2022-08-19T07:18:58;19.70;99.90
21473;DHT22;10898;48.072;11.682;2022-08-19T07:23:19;19.70;99.90
21473;DHT22;10898;48.072;11.682;2022-08-19T07:25:24;19.80;99.90
21473;DHT22;10898;48.072;11.682;2022-08-19T07:27:33;19.80;99.90
21473;DHT22;10898;48.072;11.682;2022-08-19T07:29:36;19.90;99.90
21473;DHT22;10898;48.072;11.682;2022-08-19T07:31:39;19.80;99.90
21473;DHT22;10898;48.072;11.682;2022-08-19T07:33:45;19.90;99.90
21473;DHT22;10898;48.072;11.682;2022-08-19T07:35:48;19.90;99.90
21473;DHT22;10898;48.072;11.682;2022-08-19T07:37:51;19.90;99.90
21473;DHT22;10898;48.072;11.682;2022-08-19T07:39:54;19.90;99.90
21473;DHT22;10898;48.072;11.682;2022-08-19T07:41:58;19.90;99.90
21473;DHT22;10898;48.072;11.682;2022-08-19T07:44:00;20.00;99.90
21473;DHT22;10898;48.072;11.682;2022-08-19T07:46:06;20.00;99.90
21473;DHT22;10898;48.072;11.682;2022-08-19T07:48:15;20.10;99.90
21473;DHT22;10898;48.072;11.682;2022-08-19T07:50:18;20.10;99.90
21473;DHT22;10898;48.072;11.682;2022-08-19T07:52:21;20.20;99.90
21473;DHT22;10898;48.072;11.682;2022-08-19T07:54:25;20.20;99.90
21473;DHT22;10898;48.072;11.682;2022-08-19T07:56:28;20.20;99.90
21473;DHT22;10898;48.072;11.682;2022-08-19T07:58:32;20.20;99.90
21473;DHT22;10898;48.072;11.682;2022-08-19T08:00:34;20.20;99.90
21473;DHT22;10898;48.072;11.682;2022-08-19T08:02:37;20.30;99.90
21473;DHT22;10898;48.072;11.682;2022-08-19T08:04:40;20.30;99.90
21473;DHT22;10898;48.072;11.682;2022-08-19T08:07:01;20.30;99.90
21473;DHT22;10898;48.072;11.682;2022-08-19T08:09:28;20.30;99.90
21473;DHT22;10898;48.072;11.682;2022-08-19T08:11:30;20.30;99.90
21473;DHT22;10898;48.072;11.682;2022-08-19T08:13:33;20.30;99.90
21473;DHT22;10898;48.072;11.682;2022-08-19T08:15:39;20.30;99.90
21473;DHT22;10898;48.072;11.682;2022-08-19T08:17:44;20.20;99.90
21473;DHT22;10898;48.072;11.682;2022-08-19T08:19:50;20.20;99.90
21473;DHT22;10898;48.072;11.682;2022-08-19T08:21:57;20.20;99.90
21473;DHT22;10898;48.072;11.682;2022-08-19T08:24:00;20.20;99.90
21473;DHT22;10898;48.072;11.682;2022-08-19T08:26:02;20.20;99.90
21473;DHT22;10898;48.072;11.682;2022-08-19T08:28:05;20.20;99.90
21473;DHT22;10898;48.072;11.682;2022-08-19T08:30:16;20.30;99.90
21473;DHT22;10898;48.072;11.682;2022-08-19T08:32:19;20.20;99.90
21473;DHT22;10898;48.072;11.682;2022-08-19T08:34:21;20.30;99.90
21473;DHT22;10898;48.072;11.682;2022-08-19T08:36:22;20.20;99.90
21473;DHT22;10898;48.072;11.682;2022-08-19T08:38:26;20.20;99.90
21473;DHT22;10898;48.072;11.682;2022-08-19T08:40:47;20.30;99.90
21473;DHT22;10898;48.072;11.682;2022-08-19T08:43:01;20.30;99.90
21473;DHT22;10898;48.072;11.682;2022-08-19T08:45:14;20.30;99.90
21473;DHT22;10898;48.072;11.682;2022-08-19T08:47:20;20.30;99.90
21473;DHT22;10898;48.072;11.682;2022-08-19T08:49:33;20.30;99.90
21473;DHT22;10898;48.072;11.682;2022-08-19T08:51:45;20.30;99.90
21473;DHT22;10898;48.072;11.682;2022-08-19T08:54:00;20.30;99.90
21473;DHT22;10898;48.072;11.682;2022-08-19T08:56:04;20.30;99.90
21473;DHT22;10898;48.072;11.682;2022-08-19T08:58:13;20.30;99.90
21473;DHT22;10898;48.072;11.682;2022-08-19T09:00:30;20.30;99.90
21473;DHT22;10898;48.072;11.682;2022-08-19T09:02:32;20.30;99.90
21473;DHT22;10898;48.072;11.682;2022-08-19T09:04:35;20.20;99.90
21473;DHT22;10898;48.072;11.682;2022-08-19T09:09:17;20.20;99.90
21473;DHT22;10898;48.072;11.682;2022-08-19T09:11:44;20.20;99.90
21473;DHT22;10898;48.072;11.682;2022-08-19T09:13:55;20.20;99.90
21473;DHT22;10898;48.072;11.682;2022-08-19T09:16:22;20.10;99.90
21473;DHT22;10898;48.072;11.682;2022-08-19T09:20:44;20.20;99.90
21473;DHT22;10898;48.072;11.682;2022-08-19T09:22:46;20.10;99.90
21473;DHT22;10898;48.072;11.682;2022-08-19T09:24:51;20.20;99.90
21473;DHT22;10898;48.072;11.682;2022-08-19T09:26:55;20.30;99.90
21473;DHT22;10898;48.072;11.682;2022-08-19T09:28:58;20.30;99.90
21473;DHT22;10898;48.072;11.682;2022-08-19T09:31:00;20.30;99.90
21473;DHT22;10898;48.072;11.682;2022-08-19T09:33:02;20.40;99.90
21473;DHT22;10898;48.072;11.682;2022-08-19T09:35:04;20.40;99.90
21473;DHT22;10898;48.072;11.682;2022-08-19T09:37:11;20.50;99.90
21473;DHT22;10898;48.072;11.682;2022-08-19T09:39:15;20.50;99.90
21473;DHT22;10898;48.072;11.682;2022-08-19T09:41:19;20.50;99.90
21473;DHT22;10898;48.072;11.682;2022-08-19T09:43:21;20.60;99.90
21473;DHT22;10898;48.072;11.682;2022-08-19T09:45:34;20.70;99.90
21473;DHT22;10898;48.072;11.682;2022-08-19T09:47:37;20.70;99.90
21473;DHT22;10898;48.072;11.682;2022-08-19T09:49:41;20.80;99.90
21473;DHT22;10898;48.072;11.682;2022-08-19T09:51:43;20.90;99.90
21473;DHT22;10898;48.072;11.682;2022-08-19T09:53:52;21.00;99.90
21473;DHT22;10898;48.072;11.682;2022-08-19T09:55:56;21.10;99.90
21473;DHT22;10898;48.072;11.682;2022-08-19T09:57:59;21.20;99.90
21473;DHT22;10898;48.072;11.682;2022-08-19T10:00:05;21.30;99.90
21473;DHT22;10898;48.072;11.682;2022-08-19T10:02:08;21.40;99.90
21473;DHT22;10898;48.072;11.682;2022-08-19T10:04:12;21.40;99.90
21473;DHT22;10898;48.072;11.682;2022-08-19T10:06:22;21.50;99.90
21473;DHT22;10898;48.072;11.682;2022-08-19T10:08:45;21.50;99.90
21473;DHT22;10898;48.072;11.682;2022-08-19T10:10:51;21.50;99.90
21473;DHT22;10898;48.072;11.682;2022-08-19T10:12:53;21.50;99.90
21473;DHT22;10898;48.072;11.682;2022-08-19T10:14:56;21.60;99.90
21473;DHT22;10898;48.072;11.682;2022-08-19T10:16:58;21.60;99.90
21473;DHT22;10898;48.072;11.682;2022-08-19T10:19:05;21.60;99.90
21473;DHT22;10898;48.072;11.682;2022-08-19T10:21:12;21.70;99.90
21473;DHT22;10898;48.072;11.682;2022-08-19T10:23:16;21.80;99.90
21473;DHT22;10898;48.072;11.682;2022-08-19T10:25:18;21.80;99.90
21473;DHT22;10898;48.072;11.682;2022-08-19T10:27:20;21.80;99.90
21473;DHT22;10898;48.072;11.682;2022-08-19T10:29:22;21.80;99.90
21473;DHT22;10898;48.072;11.682;2022-08-19T10:31:34;21.80;99.90
21473;DHT22;10898;48.072;11.682;2022-08-19T10:33:56;21.80;99.90
21473;DHT22;10898;48.072;11.682;2022-08-19T10:36:06;21.80;99.90
21473;DHT22;10898;48.072;11.682;2022-08-19T10:38:08;21.80;99.90
21473;DHT22;10898;48.072;11.682;2022-08-19T10:40:11;21.80;99.90
21473;DHT22;10898;48.072;11.682;2022-08-19T10:42:14;21.70;99.90
21473;DHT22;10898;48.072;11.682;2022-08-19T10:44:17;21.70;99.90
21473;DHT22;10898;48.072;11.682;2022-08-19T10:46:20;21.80;99.90
21473;DHT22;10898;48.072;11.682;2022-08-19T10:48:22;21.80;99.90
21473;DHT22;10898;48.072;11.682;2022-08-19T10:50:24;21.80;99.90
21473;DHT22;10898;48.072;11.682;2022-08-19T10:52:47;21.80;99.90
21473;DHT22;10898;48.072;11.682;2022-08-19T10:54:50;21.90;99.90
21473;DHT22;10898;48.072;11.682;2022-08-19T10:57:11;22.00;99.90
21473;DHT22;10898;48.072;11.682;2022-08-19T10:59:13;22.20;99.90
21473;DHT22;10898;48.072;11.682;2022-08-19T11:01:15;22.20;99.90
21473;DHT22;10898;48.072;11.682;2022-08-19T11:03:17;22.20;99.90
21473;DHT22;10898;48.072;11.682;2022-08-19T11:05:20;22.10;99.90
21473;DHT22;10898;48.072;11.682;2022-08-19T11:07:25;22.20;99.90
21473;DHT22;10898;48.072;11.682;2022-08-19T11:09:27;22.30;99.90
21473;DHT22;10898;48.072;11.682;2022-08-19T11:11:34;22.40;99.90
21473;DHT22;10898;48.072;11.682;2022-08-19T11:13:42;22.50;99.90
21473;DHT22;10898;48.072;11.682;2022-08-19T11:15:45;22.50;99.90
21473;DHT22;10898;48.072;11.682;2022-08-19T11:17:48;22.60;99.90
21473;DHT22;10898;48.072;11.682;2022-08-19T11:19:50;22.60;99.90
21473;DHT22;10898;48.072;11.682;2022-08-19T11:21:52;22.70;99.90
21473;DHT22;10898;48.072;11.682;2022-08-19T11:24:01;22.60;99.90
21473;DHT22;10898;48.072;11.682;2022-08-19T11:26:04;22.60;99.90
21473;DHT22;10898;48.072;11.682;2022-08-19T11:28:06;22.50;99.90
21473;DHT22;10898;48.072;11.682;2022-08-19T11:30:09;22.40;99.90
21473;DHT22;10898;48.072;11.682;2022-08-19T11:32:13;22.40;99.90
21473;DHT22;10898;48.072;11.682;2022-08-19T11:34:19;22.40;99.90
21473;DHT22;10898;48.072;11.682;2022-08-19T11:36:22;22.40;99.90
21473;DHT22;10898;48.072;11.682;2022-08-19T11:38:24;22.40;99.90
21473;DHT22;10898;48.072;11.682;2022-08-19T11:40:25;22.50;99.90
21473;DHT22;10898;48.072;11.682;2022-08-19T11:42:27;22.50;99.90
21473;DHT22;10898;48.072;11.682;2022-08-19T11:44:47;22.50;99.90
21473;DHT22;10898;48.072;11.682;2022-08-19T11:46:49;22.60;99.90
21473;DHT22;10898;48.072;11.682;2022-08-19T11:48:51;22.50;99.90
21473;DHT22;10898;48.072;11.682;2022-08-19T11:50:53;22.50;99.90
21473;DHT22;10898;48.072;11.682;2022-08-19T11:52:58;22.60;99.90
21473;DHT22;10898;48.072;11.682;2022-08-19T11:55:00;22.50;99.90
21473;DHT22;10898;48.072;11.682;2022-08-19T11:57:03;22.40;99.90
21473;DHT22;10898;48.072;11.682;2022-08-19T11:59:05;22.40;99.90
21473;DHT22;10898;48.072;11.682;2022-08-19T12:01:14;22.40;99.90
21473;DHT22;10898;48.072;11.682;2022-08-19T12:03:17;22.50;99.90
21473;DHT22;10898;48.072;11.682;2022-08-19T12:05:21;22.60;99.90
21473;DHT22;10898;48.072;11.682;2022-08-19T12:07:22;22.70;99.90
21473;DHT22;10898;48.072;11.682;2022-08-19T12:09:24;22.70;99.90
21473;DHT22;10898;48.072;11.682;2022-08-19T12:11:32;22.70;99.90
21473;DHT22;10898;48.072;11.682;2022-08-19T12:13:36;22.60;99.90
21473;DHT22;10898;48.072;11.682;2022-08-19T12:15:39;22.60;99.90
21473;DHT22;10898;48.072;11.682;2022-08-19T12:17:46;22.60;99.90
21473;DHT22;10898;48.072;11.682;2022-08-19T12:19:48;22.50;99.90
21473;DHT22;10898;48.072;11.682;2022-08-19T12:21:51;22.40;99.90
21473;DHT22;10898;48.072;11.682;2022-08-19T12:23:56;22.30;99.90
21473;DHT22;10898;48.072;11.682;2022-08-19T12:25:58;22.10;99.90
21473;DHT22;10898;48.072;11.682;2022-08-19T12:28:00;22.10;99.90
21473;DHT22;10898;48.072;11.682;2022-08-19T12:30:05;22.00;99.90
21473;DHT22;10898;48.072;11.682;2022-08-19T12:32:07;21.90;99.90
21473;DHT22;10898;48.072;11.682;2022-08-19T12:34:12;21.90;99.90
21473;DHT22;10898;48.072;11.682;2022-08-19T12:36:15;21.90;99.90
21473;DHT22;10898;48.072;11.682;2022-08-19T12:38:18;21.90;99.90
21473;DHT22;10898;48.072;11.682;2022-08-19T12:40:19;21.90;99.90
21473;DHT22;10898;48.072;11.682;2022-08-19T12:42:21;21.90;99.90
21473;DHT22;10898;48.072;11.682;2022-08-19T12:44:24;21.80;99.90
21473;DHT22;10898;48.072;11.682;2022-08-19T12:46:30;21.80;99.90
21473;DHT22;10898;48.072;11.682;2022-08-19T12:48:35;21.70;99.90
21473;DHT22;10898;48.072;11.682;2022-08-19T12:50:41;21.70;99.90
21473;DHT22;10898;48.072;11.682;2022-08-19T12:52:43;21.60;99.90
21473;DHT22;10898;48.072;11.682;2022-08-19T12:54:45;21.50;99.90
21473;DHT22;10898;48.072;11.682;2022-08-19T12:56:47;21.60;99.90
21473;DHT22;10898;48.072;11.682;2022-08-19T12:58:49;21.50;99.90
21473;DHT22;10898;48.072;11.682;2022-08-19T13:00:53;21.50;99.90
21473;DHT22;10898;48.072;11.682;2022-08-19T13:02:55;21.50;99.90
21473;DHT22;10898;48.072;11.682;2022-08-19T13:04:57;21.50;99.90
21473;DHT22;10898;48.072;11.682;2022-08-19T13:07:00;21.60;99.90